sensor_id;sensor_type;location;lat;lon;timestamp;temperature;humidity
9790;DHT22;4934;50.852;8.098;2023-04-15T00:01:27;2.10;99.90
9790;DHT22;4934;50.852;8.098;2023-04-15T00:03:53;2.00;99.90
9790;DHT22;4934;50.852;8.098;2023-04-15T00:06:20;2.00;99.90
9790;DHT22;4934;50.852;8.098;2023-04-15T00:08:47;1.90;99.90
9790;DHT22;4934;50.852;8.098;2023-04-15T00:11:14;1.90;99.90
9790;DHT22;4934;50.852;8.098;2023-04-15T00:13:40;1.90;99.90
9790;DHT22;4934;50.852;8.098;2023-04-15T00:16:06;1.90;99.90
9790;DHT22;4934;50.852;8.098;2023-04-15T00:18:33;1.90;99.90
9790;DHT22;4934;50.852;8.098;2023-04-15T00:20:59;1.80;99.90
9790;DHT22;4934;50.852;8.098;2023-04-15T00:23:25;1.80;99.90
9790;DHT22;4934;50.852;8.098;2023-04-15T00:25:51;1.70;99.90
9790;DHT22;4934;50.852;8.098;2023-04-15T00:28:17;1.70;99.90
9790;DHT22;4934;50.852;8.098;2023-04-15T00:30:44;1.90;99.90
9790;DHT22;4934;50.852;8.098;2023-04-15T00:33:11;2.00;99.90
9790;DHT22;4934;50.852;8.098;2023-04-15T00:35:37;1.90;99.90
9790;DHT22;4934;50.852;8.098;2023-04-15T00:38:04;1.70;99.90
9790;DHT22;4934;50.852;8.098;2023-04-15T00:40:30;1.80;99.90
9790;DHT22;4934;50.852;8.098;2023-04-15T00:42:56;1.80;99.90
9790;DHT22;4934;50.852;8.098;2023-04-15T00:45:22;1.70;99.90
9790;DHT22;4934;50.852;8.098;2023-04-15T00:47:48;1.60;99.90
9790;DHT22;4934;50.852;8.098;2023-04-15T00:50:15;1.60;99.90
9790;DHT22;4934;50.852;8.098;2023-04-15T00:52:41;1.60;99.90
9790;DHT22;4934;50.852;8.098;2023-04-15T00:55:08;1.50;99.90
9790;DHT22;4934;50.852;8.098;2023-04-15T00:57:34;1.60;99.90
9790;DHT22;4934;50.852;8.098;2023-04-15T01:00:01;1.50;99.90
9790;DHT22;4934;50.852;8.098;2023-04-15T01:02:27;1.50;99.90
9790;DHT22;4934;50.852;8.098;2023-04-15T01:04:53;1.40;99.90
9790;DHT22;4934;50.852;8.098;2023-04-15T01:07:18;1.30;99.90
9790;DHT22;4934;50.852;8.098;2023-04-15T01:09:44;1.30;99.90
9790;DHT22;4934;50.852;8.098;2023-04-15T01:12:11;1.30;99.90
9790;DHT22;4934;50.852;8.098;2023-04-15T01:14:38;1.30;99.90
9790;DHT22;4934;50.852;8.098;2023-04-15T01:17:04;1.30;99.90
9790;DHT22;4934;50.852;8.098;2023-04-15T01:19:32;1.20;99.90
9790;DHT22;4934;50.852;8.098;2023-04-15T01:21:58;1.20;99.90
9790;DHT22;4934;50.852;8.098;2023-04-15T01:24:25;1.20;99.90
9790;DHT22;4934;50.852;8.098;2023-04-15T01:26:52;1.20;99.90
9790;DHT22;4934;50.852;8.098;2023-04-15T01:29:18;1.30;99.90
9790;DHT22;4934;50.852;8.098;2023-04-15T01:32:02;1.30;99.90
9790;DHT22;4934;50.852;8.098;2023-04-15T01:34:28;1.20;99.90
9790;DHT22;4934;50.852;8.098;2023-04-15T01:36:54;1.10;99.90
9790;DHT22;4934;50.852;8.098;2023-04-15T01:39:20;1.00;99.90
9790;DHT22;4934;50.852;8.098;2023-04-15T01:41:46;1.00;99.90
9790;DHT22;4934;50.852;8.098;2023-04-15T01:44:12;1.10;99.90
9790;DHT22;4934;50.852;8.098;2023-04-15T01:46:38;1.00;99.90
9790;DHT22;4934;50.852;8.098;2023-04-15T01:49:09;0.90;99.90
9790;DHT22;4934;50.852;8.098;2023-04-15T01:51:36;0.90;99.90
9790;DHT22;4934;50.852;8.098;2023-04-15T01:54:01;0.80;99.90
9790;DHT22;4934;50.852;8.098;2023-04-15T01:56:27;0.80;99.90
9790;DHT22;4934;50.852;8.098;2023-04-15T01:58:58;0.80;99.90
9790;DHT22;4934;50.852;8.098;2023-04-15T02:01:24;0.80;99.90
9790;DHT22;4934;50.852;8.098;2023-04-15T02:03:50;0.70;99.90
9790;DHT22;4934;50.852;8.098;2023-04-15T02:06:18;1.00;99.90
9790;DHT22;4934;50.852;8.098;2023-04-15T02:08:44;1.10;99.90
9790;DHT22;4934;50.852;8.098;2023-04-15T02:11:10;1.10;99.90
9790;DHT22;4934;50.852;8.098;2023-04-15T02:13:35;1.00;99.90
9790;DHT22;4934;50.852;8.098;2023-04-15T02:16:02;0.90;99.90
9790;DHT22;4934;50.852;8.098;2023-04-15T02:18:27;0.80;99.90
9790;DHT22;4934;50.852;8.098;2023-04-15T02:20:56;0.70;99.90
9790;DHT22;4934;50.852;8.098;2023-04-15T02:23:23;0.70;99.90
9790;DHT22;4934;50.852;8.098;2023-04-15T02:25:48;0.60;99.90
9790;DHT22;4934;50.852;8.098;2023-04-15T02:28:14;0.50;99.90
9790;DHT22;4934;50.852;8.098;2023-04-15T02:30:40;0.50;99.90
9790;DHT22;4934;50.852;8.098;2023-04-15T02:33:06;0.50;99.90
9790;DHT22;4934;50.852;8.098;2023-04-15T02:35:55;0.40;99.90
9790;DHT22;4934;50.852;8.098;2023-04-15T02:38:20;0.40;99.90
9790;DHT22;4934;50.852;8.098;2023-04-15T02:40:46;0.50;99.90
9790;DHT22;4934;50.852;8.098;2023-04-15T02:43:14;0.40;99.90
9790;DHT22;4934;50.852;8.098;2023-04-15T02:45:40;0.60;99.90
9790;DHT22;4934;50.852;8.098;2023-04-15T02:48:08;0.70;99.90
9790;DHT22;4934;50.852;8.098;2023-04-15T02:50:33;0.70;99.90
9790;DHT22;4934;50.852;8.098;2023-04-15T02:53:00;0.50;99.90
9790;DHT22;4934;50.852;8.098;2023-04-15T02:55:27;0.60;99.90
9790;DHT22;4934;50.852;8.098;2023-04-15T02:57:53;0.50;99.90
9790;DHT22;4934;50.852;8.098;2023-04-15T03:00:18;0.40;99.90
9790;DHT22;4934;50.852;8.098;2023-04-15T03:02:45;0.40;99.90
9790;DHT22;4934;50.852;8.098;2023-04-15T03:05:12;0.30;99.90
9790;DHT22;4934;50.852;8.098;2023-04-15T03:07:38;0.30;99.90
9790;DHT22;4934;50.852;8.098;2023-04-15T03:10:12;0.20;99.90
9790;DHT22;4934;50.852;8.098;2023-04-15T03:12:37;0.20;99.90
9790;DHT22;4934;50.852;8.098;2023-04-15T03:15:04;0.20;99.90
9790;DHT22;4934;50.852;8.098;2023-04-15T03:17:30;0.20;99.90
9790;DHT22;4934;50.852;8.098;2023-04-15T03:19:56;0.20;99.90
9790;DHT22;4934;50.852;8.098;2023-04-15T03:22:21;0.20;99.90
9790;DHT22;4934;50.852;8.098;2023-04-15T03:24:47;0.20;99.90
9790;DHT22;4934;50.852;8.098;2023-04-15T03:27:13;0.10;99.90
9790;DHT22;4934;50.852;8.098;2023-04-15T03:29:38;0.10;99.90
9790;DHT22;4934;50.852;8.098;2023-04-15T03:32:04;0.10;99.90
9790;DHT22;4934;50.852;8.098;2023-04-15T03:34:40;0.10;99.90
9790;DHT22;4934;50.852;8.098;2023-04-15T03:37:06;0.10;99.90
9790;DHT22;4934;50.852;8.098;2023-04-15T03:39:33;0.10;99.90
9790;DHT22;4934;50.852;8.098;2023-04-15T03:41:58;0.00;99.90
9790;DHT22;4934;50.852;8.098;2023-04-15T03:44:25;0.30;99.90
9790;DHT22;4934;50.852;8.098;2023-04-15T03:46:51;0.20;99.90
9790;DHT22;4934;50.852;8.098;2023-04-15T03:49:35;0.10;99.90
9790;DHT22;4934;50.852;8.098;2023-04-15T03:52:00;0.10;99.90
9790;DHT22;4934;50.852;8.098;2023-04-15T03:54:26;0.10;99.90
9790;DHT22;4934;50.852;8.098;2023-04-15T03:56:52;0.00;99.90
9790;DHT22;4934;50.852;8.098;2023-04-15T03:59:17;0.10;99.90
9790;DHT22;4934;50.852;8.098;2023-04-15T04:01:43;0.10;99.90
9790;DHT22;4934;50.852;8.098;2023-04-15T04:04:09;0.10;99.90
9790;DHT22;4934;50.852;8.098;2023-04-15T04:06:35;0.20;99.90
9790;DHT22;4934;50.852;8.098;2023-04-15T04:09:00;0.20;99.90
9790;DHT22;4934;50.852;8.098;2023-04-15T04:11:26;0.20;99.90
9790;DHT22;4934;50.852;8.098;2023-04-15T04:13:52;0.30;99.90
9790;DHT22;4934;50.852;8.098;2023-04-15T04:16:18;0.20;99.90
9790;DHT22;4934;50.852;8.098;2023-04-15T04:18:44;0.20;99.90
9790;DHT22;4934;50.852;8.098;2023-04-15T04:21:10;0.20;99.90
9790;DHT22;4934;50.852;8.098;2023-04-15T04:23:36;0.20;99.90
9790;DHT22;4934;50.852;8.098;2023-04-15T04:26:01;0.20;99.90
9790;DHT22;4934;50.852;8.098;2023-04-15T04:28:27;0.20;99.90
9790;DHT22;4934;50.852;8.098;2023-04-15T04:30:53;0.20;99.90
9790;DHT22;4934;50.852;8.098;2023-04-15T04:33:18;0.30;99.90
9790;DHT22;4934;50.852;8.098;2023-04-15T04:35:44;0.40;99.90
9790;DHT22;4934;50.852;8.098;2023-04-15T04:38:09;0.40;99.90
9790;DHT22;4934;50.852;8.098;2023-04-15T04:40:35;0.30;99.90
9790;DHT22;4934;50.852;8.098;2023-04-15T04:43:01;0.30;99.90
9790;DHT22;4934;50.852;8.098;2023-04-15T04:45:26;0.30;99.90
9790;DHT22;4934;50.852;8.098;2023-04-15T04:47:52;0.20;99.90
9790;DHT22;4934;50.852;8.098;2023-04-15T04:50:18;0.20;99.90
9790;DHT22;4934;50.852;8.098;2023-04-15T04:52:43;0.20;99.90
9790;DHT22;4934;50.852;8.098;2023-04-15T04:55:09;0.40;99.90
9790;DHT22;4934;50.852;8.098;2023-04-15T04:57:34;0.40;99.90
9790;DHT22;4934;50.852;8.098;2023-04-15T05:00:01;0.30;99.90
9790;DHT22;4934;50.852;8.098;2023-04-15T05:02:30;0.30;99.90
9790;DHT22;4934;50.852;8.098;2023-04-15T05:04:56;0.30;99.90
9790;DHT22;4934;50.852;8.098;2023-04-15T05:07:25;0.30;99.90
9790;DHT22;4934;50.852;8.098;2023-04-15T05:09:51;0.30;99.90
9790;DHT22;4934;50.852;8.098;2023-04-15T05:12:17;0.30;99.90
9790;DHT22;4934;50.852;8.098;2023-04-15T05:14:43;0.50;99.90
9790;DHT22;4934;50.852;8.098;2023-04-15T05:17:08;0.50;99.90
9790;DHT22;4934;50.852;8.098;2023-04-15T05:19:35;0.50;99.90
9790;DHT22;4934;50.852;8.098;2023-04-15T05:22:02;0.60;99.90
9790;DHT22;4934;50.852;8.098;2023-04-15T05:24:28;0.70;99.90
9790;DHT22;4934;50.852;8.098;2023-04-15T05:26:53;0.70;99.90
9790;DHT22;4934;50.852;8.098;2023-04-15T05:29:19;0.90;99.90
9790;DHT22;4934;50.852;8.098;2023-04-15T05:31:45;0.80;99.90
9790;DHT22;4934;50.852;8.098;2023-04-15T05:34:10;0.90;99.90
9790;DHT22;4934;50.852;8.098;2023-04-15T05:36:41;1.00;99.90
9790;DHT22;4934;50.852;8.098;2023-04-15T05:39:06;1.10;99.90
9790;DHT22;4934;50.852;8.098;2023-04-15T05:41:32;1.30;99.90
9790;DHT22;4934;50.852;8.098;2023-04-15T05:43:57;1.40;99.90
9790;DHT22;4934;50.852;8.098;2023-04-15T05:46:23;1.40;99.90
9790;DHT22;4934;50.852;8.098;2023-04-15T05:49:24;1.50;99.90
9790;DHT22;4934;50.852;8.098;2023-04-15T05:51:49;1.50;99.90
9790;DHT22;4934;50.852;8.098;2023-04-15T05:54:15;1.60;99.90
9790;DHT22;4934;50.852;8.098;2023-04-15T05:56:41;1.70;99.90
9790;DHT22;4934;50.852;8.098;2023-04-15T05:59:07;1.80;99.90
9790;DHT22;4934;50.852;8.098;2023-04-15T06:01:33;1.80;99.90
9790;DHT22;4934;50.852;8.098;2023-04-15T06:03:59;1.90;99.90
9790;DHT22;4934;50.852;8.098;2023-04-15T06:06:24;2.00;99.90
9790;DHT22;4934;50.852;8.098;2023-04-15T06:08:51;2.00;99.90
9790;DHT22;4934;50.852;8.098;2023-04-15T06:11:18;2.10;99.90
9790;DHT22;4934;50.852;8.098;2023-04-15T06:13:45;2.20;99.90
9790;DHT22;4934;50.852;8.098;2023-04-15T06:16:11;2.20;99.90
9790;DHT22;4934;50.852;8.098;2023-04-15T06:18:36;2.40;99.90
9790;DHT22;4934;50.852;8.098;2023-04-15T06:21:02;2.50;99.90
9790;DHT22;4934;50.852;8.098;2023-04-15T06:23:28;2.60;99.90
9790;DHT22;4934;50.852;8.098;2023-04-15T06:25:54;2.70;99.90
9790;DHT22;4934;50.852;8.098;2023-04-15T06:28:20;2.70;99.90
9790;DHT22;4934;50.852;8.098;2023-04-15T06:30:45;2.90;99.90
9790;DHT22;4934;50.852;8.098;2023-04-15T06:33:11;3.00;99.90
9790;DHT22;4934;50.852;8.098;2023-04-15T06:35:37;3.10;99.90
9790;DHT22;4934;50.852;8.098;2023-04-15T06:38:03;3.10;99.90
9790;DHT22;4934;50.852;8.098;2023-04-15T06:40:29;3.20;99.90
9790;DHT22;4934;50.852;8.098;2023-04-15T06:42:55;3.30;99.90
9790;DHT22;4934;50.852;8.098;2023-04-15T06:45:21;3.50;99.90
9790;DHT22;4934;50.852;8.098;2023-04-15T06:47:46;3.50;99.90
9790;DHT22;4934;50.852;8.098;2023-04-15T06:50:12;3.50;99.90
9790;DHT22;4934;50.852;8.098;2023-04-15T06:52:38;3.70;99.90
9790;DHT22;4934;50.852;8.098;2023-04-15T06:55:04;3.90;99.90
9790;DHT22;4934;50.852;8.098;2023-04-15T06:57:40;4.10;99.90
9790;DHT22;4934;50.852;8.098;2023-04-15T07:00:06;4.30;99.90
9790;DHT22;4934;50.852;8.098;2023-04-15T07:02:32;4.40;99.90
9790;DHT22;4934;50.852;8.098;2023-04-15T07:04:58;4.70;99.90
9790;DHT22;4934;50.852;8.098;2023-04-15T07:07:23;5.00;99.90
9790;DHT22;4934;50.852;8.098;2023-04-15T07:09:50;5.00;99.90
9790;DHT22;4934;50.852;8.098;2023-04-15T07:12:18;5.20;99.90
9790;DHT22;4934;50.852;8.098;2023-04-15T07:14:43;5.50;99.90
9790;DHT22;4934;50.852;8.098;2023-04-15T07:17:09;5.60;99.90
9790;DHT22;4934;50.852;8.098;2023-04-15T07:19:36;5.80;99.90
9790;DHT22;4934;50.852;8.098;2023-04-15T07:22:01;5.90;99.90
9790;DHT22;4934;50.852;8.098;2023-04-15T07:24:27;6.10;99.90
9790;DHT22;4934;50.852;8.098;2023-04-15T07:26:53;6.30;99.90
9790;DHT22;4934;50.852;8.098;2023-04-15T07:29:22;6.50;99.90
9790;DHT22;4934;50.852;8.098;2023-04-15T07:31:47;6.70;99.90
9790;DHT22;4934;50.852;8.098;2023-04-15T07:34:13;6.90;99.90
9790;DHT22;4934;50.852;8.098;2023-04-15T07:36:39;7.20;99.90
9790;DHT22;4934;50.852;8.098;2023-04-15T07:39:04;7.40;99.90
9790;DHT22;4934;50.852;8.098;2023-04-15T07:41:30;7.70;99.90
9790;DHT22;4934;50.852;8.098;2023-04-15T07:43:56;8.00;99.90
9790;DHT22;4934;50.852;8.098;2023-04-15T07:46:22;8.20;99.90
9790;DHT22;4934;50.852;8.098;2023-04-15T07:48:49;8.20;99.90
9790;DHT22;4934;50.852;8.098;2023-04-15T07:51:15;8.30;99.90
9790;DHT22;4934;50.852;8.098;2023-04-15T07:53:42;8.30;99.90
9790;DHT22;4934;50.852;8.098;2023-04-15T07:56:09;8.40;99.90
9790;DHT22;4934;50.852;8.098;2023-04-15T07:58:34;8.40;99.90
9790;DHT22;4934;50.852;8.098;2023-04-15T08:01:00;8.20;99.90
9790;DHT22;4934;50.852;8.098;2023-04-15T08:03:27;8.30;99.90
9790;DHT22;4934;50.852;8.098;2023-04-15T08:05:52;8.20;99.90
9790;DHT22;4934;50.852;8.098;2023-04-15T08:08:18;8.20;99.90
9790;DHT22;4934;50.852;8.098;2023-04-15T08:10:44;8.20;99.90
9790;DHT22;4934;50.852;8.098;2023-04-15T08:13:10;8.30;99.90
9790;DHT22;4934;50.852;8.098;2023-04-15T08:15:36;8.30;99.90
9790;DHT22;4934;50.852;8.098;2023-04-15T08:18:02;8.30;99.90
9790;DHT22;4934;50.852;8.098;2023-04-15T08:20:27;8.40;99.90
9790;DHT22;4934;50.852;8.098;2023-04-15T08:22:53;8.40;99.90
9790;DHT22;4934;50.852;8.098;2023-04-15T08:25:18;8.40;99.90
9790;DHT22;4934;50.852;8.098;2023-04-15T08:27:45;8.60;99.90
9790;DHT22;4934;50.852;8.098;2023-04-15T08:30:11;8.50;99.90
9790;DHT22;4934;50.852;8.098;2023-04-15T08:32:36;8.40;99.90
9790;DHT22;4934;50.852;8.098;2023-04-15T08:35:02;8.30;99.90
9790;DHT22;4934;50.852;8.098;2023-04-15T08:37:28;8.30;99.90
9790;DHT22;4934;50.852;8.098;2023-04-15T08:39:53;8.30;99.90
9790;DHT22;4934;50.852;8.098;2023-04-15T08:42:24;8.30;99.90
9790;DHT22;4934;50.852;8.098;2023-04-15T08:44:52;8.40;99.90
9790;DHT22;4934;50.852;8.098;2023-04-15T08:47:20;8.50;99.90
9790;DHT22;4934;50.852;8.098;2023-04-15T08:49:49;8.60;99.90
9790;DHT22;4934;50.852;8.098;2023-04-15T08:52:18;8.60;99.90
9790;DHT22;4934;50.852;8.098;2023-04-15T08:54:45;8.60;99.90
9790;DHT22;4934;50.852;8.098;2023-04-15T08:57:12;8.60;99.90
9790;DHT22;4934;50.852;8.098;2023-04-15T08:59:40;8.60;99.90
9790;DHT22;4934;50.852;8.098;2023-04-15T09:02:07;8.70;99.90
9790;DHT22;4934;50.852;8.098;2023-04-15T09:04:33;8.60;99.90
9790;DHT22;4934;50.852;8.098;2023-04-15T09:06:59;8.70;99.90
9790;DHT22;4934;50.852;8.098;2023-04-15T09:09:26;8.80;99.90
9790;DHT22;4934;50.852;8.098;2023-04-15T09:11:52;8.60;99.90
9790;DHT22;4934;50.852;8.098;2023-04-15T09:14:17;8.70;99.90
9790;DHT22;4934;50.852;8.098;2023-04-15T09:16:59;8.70;99.90
9790;DHT22;4934;50.852;8.098;2023-04-15T09:19:26;8.70;99.90
9790;DHT22;4934;50.852;8.098;2023-04-15T09:21:56;8.70;99.90
9790;DHT22;4934;50.852;8.098;2023-04-15T09:24:23;8.70;99.90
9790;DHT22;4934;50.852;8.098;2023-04-15T09:26:52;8.80;99.90
9790;DHT22;4934;50.852;8.098;2023-04-15T09:29:19;8.90;99.90
9790;DHT22;4934;50.852;8.098;2023-04-15T09:31:44;8.80;99.90
9790;DHT22;4934;50.852;8.098;2023-04-15T09:34:10;8.60;99.90
9790;DHT22;4934;50.852;8.098;2023-04-15T09:39:13;8.70;99.90
9790;DHT22;4934;50.852;8.098;2023-04-15T09:41:39;8.80;99.90
9790;DHT22;4934;50.852;8.098;2023-04-15T09:44:05;8.80;99.90
9790;DHT22;4934;50.852;8.098;2023-04-15T09:46:43;8.80;99.90
9790;DHT22;4934;50.852;8.098;2023-04-15T09:49:10;8.70;99.90
9790;DHT22;4934;50.852;8.098;2023-04-15T09:51:35;8.80;99.90
9790;DHT22;4934;50.852;8.098;2023-04-15T09:54:01;9.10;99.90
9790;DHT22;4934;50.852;8.098;2023-04-15T09:56:37;9.20;99.90
9790;DHT22;4934;50.852;8.098;2023-04-15T09:59:07;9.20;99.90
9790;DHT22;4934;50.852;8.098;2023-04-15T10:01:33;9.00;99.90
9790;DHT22;4934;50.852;8.098;2023-04-15T10:04:02;9.00;99.90
9790;DHT22;4934;50.852;8.098;2023-04-15T10:06:28;9.00;99.90
9790;DHT22;4934;50.852;8.098;2023-04-15T10:08:55;9.10;99.90
9790;DHT22;4934;50.852;8.098;2023-04-15T10:11:21;9.10;99.90
9790;DHT22;4934;50.852;8.098;2023-04-15T10:13:49;9.10;99.90
9790;DHT22;4934;50.852;8.098;2023-04-15T10:16:18;8.80;99.90
9790;DHT22;4934;50.852;8.098;2023-04-15T10:18:53;8.90;99.90
9790;DHT22;4934;50.852;8.098;2023-04-15T10:21:20;9.00;99.90
9790;DHT22;4934;50.852;8.098;2023-04-15T10:23:48;8.90;99.90
9790;DHT22;4934;50.852;8.098;2023-04-15T10:26:14;9.00;99.90
9790;DHT22;4934;50.852;8.098;2023-04-15T10:28:45;9.10;99.90
9790;DHT22;4934;50.852;8.098;2023-04-15T10:31:12;9.10;99.90
9790;DHT22;4934;50.852;8.098;2023-04-15T10:33:40;9.00;99.90
9790;DHT22;4934;50.852;8.098;2023-04-15T10:36:06;8.70;99.90
9790;DHT22;4934;50.852;8.098;2023-04-15T10:38:33;8.60;99.90
9790;DHT22;4934;50.852;8.098;2023-04-15T10:41:21;8.60;99.90
9790;DHT22;4934;50.852;8.098;2023-04-15T10:44:17;8.60;99.90
9790;DHT22;4934;50.852;8.098;2023-04-15T10:46:44;8.50;99.90
9790;DHT22;4934;50.852;8.098;2023-04-15T10:49:24;8.50;99.90
9790;DHT22;4934;50.852;8.098;2023-04-15T10:51:52;8.60;99.90
9790;DHT22;4934;50.852;8.098;2023-04-15T10:57:16;8.70;99.90
9790;DHT22;4934;50.852;8.098;2023-04-15T11:00:09;8.80;99.90
9790;DHT22;4934;50.852;8.098;2023-04-15T11:05:19;8.60;99.90
9790;DHT22;4934;50.852;8.098;2023-04-15T11:12:46;8.60;99.90
9790;DHT22;4934;50.852;8.098;2023-04-15T11:20:34;8.60;99.90
9790;DHT22;4934;50.852;8.098;2023-04-15T11:22:59;8.50;99.90
9790;DHT22;4934;50.852;8.098;2023-04-15T11:25:33;8.30;99.90
9790;DHT22;4934;50.852;8.098;2023-04-15T11:28:00;8.20;99.90
9790;DHT22;4934;50.852;8.098;2023-04-15T11:30:28;8.00;99.90
9790;DHT22;4934;50.852;8.098;2023-04-15T11:33:05;8.00;99.90
9790;DHT22;4934;50.852;8.098;2023-04-15T11:35:31;8.00;99.90
9790;DHT22;4934;50.852;8.098;2023-04-15T11:38:03;8.10;99.90
9790;DHT22;4934;50.852;8.098;2023-04-15T11:40:30;8.00;99.90
9790;DHT22;4934;50.852;8.098;2023-04-15T11:43:14;7.90;99.90
9790;DHT22;4934;50.852;8.098;2023-04-15T11:45:57;7.80;99.90
9790;DHT22;4934;50.852;8.098;2023-04-15T11:48:25;7.80;99.90
9790;DHT22;4934;50.852;8.098;2023-04-15T11:50:54;8.00;99.90
9790;DHT22;4934;50.852;8.098;2023-04-15T11:53:21;8.00;99.90
9790;DHT22;4934;50.852;8.098;2023-04-15T11:55:48;8.10;99.90
9790;DHT22;4934;50.852;8.098;2023-04-15T11:58:23;8.00;99.90
9790;DHT22;4934;50.852;8.098;2023-04-15T12:00:51;7.90;99.90
9790;DHT22;4934;50.852;8.098;2023-04-15T12:06:09;7.80;99.90
9790;DHT22;4934;50.852;8.098;2023-04-15T12:13:54;7.70;99.90
9790;DHT22;4934;50.852;8.098;2023-04-15T12:16:21;7.70;99.90
9790;DHT22;4934;50.852;8.098;2023-04-15T12:18:56;7.50;99.90
9790;DHT22;4934;50.852;8.098;2023-04-15T12:21:24;7.70;99.90
9790;DHT22;4934;50.852;8.098;2023-04-15T12:23:54;7.60;99.90
9790;DHT22;4934;50.852;8.098;2023-04-15T12:26:27;7.60;99.90
9790;DHT22;4934;50.852;8.098;2023-04-15T12:29:00;7.60;99.90
9790;DHT22;4934;50.852;8.098;2023-04-15T12:31:26;7.60;99.90
9790;DHT22;4934;50.852;8.098;2023-04-15T12:33:55;7.60;99.90
9790;DHT22;4934;50.852;8.098;2023-04-15T12:36:21;7.50;99.90
9790;DHT22;4934;50.852;8.098;2023-04-15T12:38:46;7.60;99.90
9790;DHT22;4934;50.852;8.098;2023-04-15T12:41:12;7.70;99.90
9790;DHT22;4934;50.852;8.098;2023-04-15T12:43:37;7.70;99.90
9790;DHT22;4934;50.852;8.098;2023-04-15T12:46:03;7.50;99.90
9790;DHT22;4934;50.852;8.098;2023-04-15T12:48:29;7.40;99.90
9790;DHT22;4934;50.852;8.098;2023-04-15T12:50:55;7.60;99.90
9790;DHT22;4934;50.852;8.098;2023-04-15T12:53:20;7.60;99.90
9790;DHT22;4934;50.852;8.098;2023-04-15T12:55:46;7.70;99.90
9790;DHT22;4934;50.852;8.098;2023-04-15T12:58:14;7.60;99.90
9790;DHT22;4934;50.852;8.098;2023-04-15T13:00:40;7.50;99.90
9790;DHT22;4934;50.852;8.098;2023-04-15T13:03:05;7.50;99.90
9790;DHT22;4934;50.852;8.098;2023-04-15T13:05:31;7.50;99.90
9790;DHT22;4934;50.852;8.098;2023-04-15T13:07:57;7.40;99.90
9790;DHT22;4934;50.852;8.098;2023-04-15T13:10:22;7.40;99.90
9790;DHT22;4934;50.852;8.098;2023-04-15T13:12:48;7.40;99.90
9790;DHT22;4934;50.852;8.098;2023-04-15T13:15:18;7.50;99.90
9790;DHT22;4934;50.852;8.098;2023-04-15T13:17:46;7.40;99.90
9790;DHT22;4934;50.852;8.098;2023-04-15T13:20:12;7.50;99.90
9790;DHT22;4934;50.852;8.098;2023-04-15T13:22:38;7.50;99.90
9790;DHT22;4934;50.852;8.098;2023-04-15T13:25:04;7.50;99.90
9790;DHT22;4934;50.852;8.098;2023-04-15T13:27:29;7.50;99.90
9790;DHT22;4934;50.852;8.098;2023-04-15T13:29:56;7.50;99.90
9790;DHT22;4934;50.852;8.098;2023-04-15T13:32:21;7.60;99.90
9790;DHT22;4934;50.852;8.098;2023-04-15T13:34:47;7.60;99.90
9790;DHT22;4934;50.852;8.098;2023-04-15T13:37:12;7.70;99.90
9790;DHT22;4934;50.852;8.098;2023-04-15T13:39:38;7.70;99.90
9790;DHT22;4934;50.852;8.098;2023-04-15T13:42:11;7.70;99.90
9790;DHT22;4934;50.852;8.098;2023-04-15T13:44:36;7.70;99.90
9790;DHT22;4934;50.852;8.098;2023-04-15T13:47:02;7.70;99.90
9790;DHT22;4934;50.852;8.098;2023-04-15T13:49:28;7.80;99.90
9790;DHT22;4934;50.852;8.098;2023-04-15T13:51:54;7.80;99.90
9790;DHT22;4934;50.852;8.098;2023-04-15T13:54:19;7.70;99.90
9790;DHT22;4934;50.852;8.098;2023-04-15T13:56:45;7.70;99.90
9790;DHT22;4934;50.852;8.098;2023-04-15T13:59:10;7.80;99.90
9790;DHT22;4934;50.852;8.098;2023-04-15T14:01:36;7.80;99.90
9790;DHT22;4934;50.852;8.098;2023-04-15T14:04:01;7.80;99.90
9790;DHT22;4934;50.852;8.098;2023-04-15T14:06:44;7.80;99.90
9790;DHT22;4934;50.852;8.098;2023-04-15T14:09:10;7.70;99.90
9790;DHT22;4934;50.852;8.098;2023-04-15T14:11:37;7.50;99.90
9790;DHT22;4934;50.852;8.098;2023-04-15T14:14:03;7.60;99.90
9790;DHT22;4934;50.852;8.098;2023-04-15T14:16:29;7.70;99.90
9790;DHT22;4934;50.852;8.098;2023-04-15T14:18:56;7.70;99.90
9790;DHT22;4934;50.852;8.098;2023-04-15T14:21:22;7.70;99.90
9790;DHT22;4934;50.852;8.098;2023-04-15T14:23:48;7.70;99.90
9790;DHT22;4934;50.852;8.098;2023-04-15T14:26:13;7.80;99.90
9790;DHT22;4934;50.852;8.098;2023-04-15T14:28:39;7.70;99.90
9790;DHT22;4934;50.852;8.098;2023-04-15T14:31:11;7.60;99.90
9790;DHT22;4934;50.852;8.098;2023-04-15T14:33:37;7.60;99.90
9790;DHT22;4934;50.852;8.098;2023-04-15T14:36:07;7.60;99.90
9790;DHT22;4934;50.852;8.098;2023-04-15T14:38:41;7.60;99.90
9790;DHT22;4934;50.852;8.098;2023-04-15T14:41:37;7.60;99.90
9790;DHT22;4934;50.852;8.098;2023-04-15T14:44:05;7.60;99.90
9790;DHT22;4934;50.852;8.098;2023-04-15T14:46:33;7.50;99.90
9790;DHT22;4934;50.852;8.098;2023-04-15T14:49:09;7.50;99.90
9790;DHT22;4934;50.852;8.098;2023-04-15T14:51:35;7.50;99.90
9790;DHT22;4934;50.852;8.098;2023-04-15T14:54:01;7.50;99.90
9790;DHT22;4934;50.852;8.098;2023-04-15T14:56:27;7.60;99.90
9790;DHT22;4934;50.852;8.098;2023-04-15T14:58:53;7.60;99.90
9790;DHT22;4934;50.852;8.098;2023-04-15T15:01:19;7.60;99.90
9790;DHT22;4934;50.852;8.098;2023-04-15T15:03:47;7.60;99.90
9790;DHT22;4934;50.852;8.098;2023-04-15T15:06:13;7.70;99.90
9790;DHT22;4934;50.852;8.098;2023-04-15T15:08:39;7.60;99.90
9790;DHT22;4934;50.852;8.098;2023-04-15T15:11:08;7.50;99.90
9790;DHT22;4934;50.852;8.098;2023-04-15T15:13:34;7.50;99.90
9790;DHT22;4934;50.852;8.098;2023-04-15T15:15:59;7.50;99.90
9790;DHT22;4934;50.852;8.098;2023-04-15T15:18:25;7.50;99.90
9790;DHT22;4934;50.852;8.098;2023-04-15T15:20:50;7.50;99.90
9790;DHT22;4934;50.852;8.098;2023-04-15T15:23:16;7.50;99.90
9790;DHT22;4934;50.852;8.098;2023-04-15T15:25:42;7.50;99.90
9790;DHT22;4934;50.852;8.098;2023-04-15T15:28:08;7.50;99.90
9790;DHT22;4934;50.852;8.098;2023-04-15T15:30:34;7.60;99.90
9790;DHT22;4934;50.852;8.098;2023-04-15T15:33:06;7.60;99.90
9790;DHT22;4934;50.852;8.098;2023-04-15T15:35:39;7.50;99.90
9790;DHT22;4934;50.852;8.098;2023-04-15T15:38:05;7.60;99.90
9790;DHT22;4934;50.852;8.098;2023-04-15T15:40:31;7.50;99.90
9790;DHT22;4934;50.852;8.098;2023-04-15T15:42:56;7.50;99.90
9790;DHT22;4934;50.852;8.098;2023-04-15T15:45:22;7.50;99.90
9790;DHT22;4934;50.852;8.098;2023-04-15T15:47:47;7.60;99.90
9790;DHT22;4934;50.852;8.098;2023-04-15T15:50:28;7.60;99.90
9790;DHT22;4934;50.852;8.098;2023-04-15T15:52:54;7.60;99.90
9790;DHT22;4934;50.852;8.098;2023-04-15T15:55:19;7.60;99.90
9790;DHT22;4934;50.852;8.098;2023-04-15T15:57:46;7.60;99.90
9790;DHT22;4934;50.852;8.098;2023-04-15T16:00:12;7.60;99.90
9790;DHT22;4934;50.852;8.098;2023-04-15T16:02:38;7.60;99.90
9790;DHT22;4934;50.852;8.098;2023-04-15T16:05:04;7.60;99.90
9790;DHT22;4934;50.852;8.098;2023-04-15T16:07:30;7.50;99.90
9790;DHT22;4934;50.852;8.098;2023-04-15T16:09:55;7.50;99.90
9790;DHT22;4934;50.852;8.098;2023-04-15T16:12:21;7.50;99.90
9790;DHT22;4934;50.852;8.098;2023-04-15T16:14:46;7.40;99.90
9790;DHT22;4934;50.852;8.098;2023-04-15T16:17:12;7.40;99.90
9790;DHT22;4934;50.852;8.098;2023-04-15T16:19:37;7.40;99.90
9790;DHT22;4934;50.852;8.098;2023-04-15T16:22:03;7.40;99.90
9790;DHT22;4934;50.852;8.098;2023-04-15T16:24:29;7.30;99.90
9790;DHT22;4934;50.852;8.098;2023-04-15T16:26:55;7.30;99.90
9790;DHT22;4934;50.852;8.098;2023-04-15T16:29:24;7.30;99.90
9790;DHT22;4934;50.852;8.098;2023-04-15T16:31:50;7.30;99.90
9790;DHT22;4934;50.852;8.098;2023-04-15T16:37:23;7.30;99.90
9790;DHT22;4934;50.852;8.098;2023-04-15T16:39:48;7.30;99.90
9790;DHT22;4934;50.852;8.098;2023-04-15T16:42:16;7.30;99.90
9790;DHT22;4934;50.852;8.098;2023-04-15T16:44:42;7.30;99.90
9790;DHT22;4934;50.852;8.098;2023-04-15T16:47:07;7.30;99.90